createdAt,value
2023-01-31T00:00:26.464Z,4.20
2023-01-31T00:02:52.980Z,4.20
2023-01-31T00:05:20.343Z,4.30
2023-01-31T00:07:47.801Z,4.20
2023-01-31T00:10:14.444Z,4.30
2023-01-31T00:12:40.980Z,4.20
2023-01-31T00:15:07.785Z,4.20
2023-01-31T00:17:34.340Z,4.20
2023-01-31T00:20:00.865Z,4.20
2023-01-31T00:22:27.444Z,4.20
2023-01-31T00:24:53.995Z,4.10
2023-01-31T00:27:20.492Z,4.10
2023-01-31T00:29:47.001Z,4.10
2023-01-31T00:32:13.632Z,4.10
2023-01-31T00:34:40.191Z,4.10
2023-01-31T00:37:06.756Z,4.10
2023-01-31T00:39:33.376Z,4.10
2023-01-31T00:41:59.899Z,4.00
2023-01-31T00:44:26.424Z,4.00
2023-01-31T00:46:52.970Z,4.00
2023-01-31T00:49:19.678Z,4.00
2023-01-31T00:51:46.206Z,4.00
2023-01-31T00:54:12.752Z,4.00
2023-01-31T00:56:39.353Z,4.00
2023-01-31T00:59:08.550Z,3.90
2023-01-31T01:01:36.086Z,4.00
2023-01-31T01:04:02.758Z,4.00
2023-01-31T01:06:29.410Z,4.00
2023-01-31T01:08:56.441Z,4.10
2023-01-31T01:11:27.186Z,4.00
2023-01-31T01:13:54.256Z,3.90
2023-01-31T01:16:25.562Z,4.00
2023-01-31T01:18:54.980Z,4.00
2023-01-31T01:21:23.167Z,4.00
2023-01-31T01:23:50.384Z,3.90
2023-01-31T01:26:18.492Z,3.90
2023-01-31T01:28:45.528Z,3.90
2023-01-31T01:31:12.991Z,3.90
2023-01-31T01:33:39.754Z,3.90
2023-01-31T01:36:07.510Z,4.00
2023-01-31T01:38:35.098Z,3.90
2023-01-31T01:41:01.836Z,3.90
2023-01-31T01:43:43.930Z,3.90
2023-01-31T01:46:12.125Z,3.90
2023-01-31T01:48:39.064Z,3.90
2023-01-31T01:51:06.720Z,3.80
2023-01-31T01:53:34.539Z,3.90
2023-01-31T01:56:03.135Z,3.80
2023-01-31T01:58:32.711Z,3.80
2023-01-31T02:00:59.773Z,3.90
2023-01-31T02:03:27.317Z,3.90
2023-01-31T02:05:58.896Z,3.80
2023-01-31T02:08:26.917Z,3.70
2023-01-31T02:10:56.235Z,3.70
2023-01-31T02:13:23.212Z,3.70
2023-01-31T02:15:49.722Z,3.70
2023-01-31T02:18:16.810Z,3.60
2023-01-31T02:21:07.221Z,3.60
2023-01-31T02:23:33.707Z,3.60
2023-01-31T02:26:23.463Z,3.60
2023-01-31T02:29:08.709Z,3.60
2023-01-31T02:31:45.658Z,3.60
2023-01-31T02:34:25.996Z,3.60
2023-01-31T02:37:01.595Z,3.60
2023-01-31T02:39:31.285Z,3.60
2023-01-31T02:42:05.706Z,3.60
2023-01-31T02:44:55.698Z,3.60
2023-01-31T02:47:31.114Z,3.60
2023-01-31T02:50:05.094Z,3.60
2023-01-31T02:52:35.119Z,3.60
2023-01-31T02:55:26.763Z,3.60
2023-01-31T02:57:54.401Z,3.60
2023-01-31T03:00:22.045Z,3.50
2023-01-31T03:02:48.813Z,3.50
2023-01-31T03:05:16.367Z,3.40
2023-01-31T03:07:44.483Z,3.40
2023-01-31T03:10:11.008Z,3.40
2023-01-31T03:12:49.698Z,3.40
2023-01-31T03:15:24.605Z,3.40
2023-01-31T03:17:51.443Z,3.40
2023-01-31T03:20:43.593Z,3.40
2023-01-31T03:23:15.986Z,3.40
2023-01-31T03:25:43.492Z,3.40
2023-01-31T03:28:13.125Z,3.40
2023-01-31T03:30:41.814Z,3.50
2023-01-31T03:33:10.866Z,3.50
2023-01-31T03:35:39.104Z,3.40
2023-01-31T03:38:17.006Z,3.40
2023-01-31T03:40:48.275Z,3.40
2023-01-31T03:43:24.993Z,3.40
2023-01-31T03:45:55.458Z,3.40
2023-01-31T03:48:22.709Z,3.40
2023-01-31T03:50:55.539Z,3.40
2023-01-31T03:53:25.368Z,3.40
2023-01-31T03:55:54.279Z,3.40
2023-01-31T03:58:22.631Z,3.40
2023-01-31T04:00:49.797Z,3.40
2023-01-31T04:03:20.724Z,3.40
2023-01-31T04:05:49.074Z,3.50
2023-01-31T04:08:16.585Z,3.40
2023-01-31T04:10:43.253Z,3.50
2023-01-31T04:13:09.792Z,3.50
2023-01-31T04:15:36.958Z,3.50
2023-01-31T04:18:03.631Z,3.40
2023-01-31T04:20:30.131Z,3.40
2023-01-31T04:22:56.624Z,3.50
2023-01-31T04:25:23.454Z,3.50
2023-01-31T04:27:51.497Z,3.50
2023-01-31T04:30:18.249Z,3.50
2023-01-31T04:32:44.763Z,3.60
2023-01-31T04:35:11.502Z,3.60
2023-01-31T04:37:38.079Z,3.90
2023-01-31T04:40:05.832Z,3.60
2023-01-31T04:42:33.115Z,3.60
2023-01-31T04:44:59.881Z,3.60
2023-01-31T04:47:26.412Z,3.50
2023-01-31T04:49:52.910Z,3.60
2023-01-31T04:52:19.416Z,3.60
2023-01-31T04:54:46.005Z,3.60
2023-01-31T04:57:12.577Z,3.60
2023-01-31T04:59:39.078Z,3.60
2023-01-31T05:02:06.220Z,3.50
2023-01-31T05:04:32.968Z,3.50
2023-01-31T05:06:59.534Z,3.50
2023-01-31T05:09:26.365Z,3.40
2023-01-31T05:11:53.116Z,3.70
2023-01-31T05:14:21.073Z,3.30
2023-01-31T05:16:47.708Z,3.30
2023-01-31T05:19:14.804Z,3.30
2023-01-31T05:21:59.850Z,3.20
2023-01-31T05:24:27.672Z,3.20
2023-01-31T05:26:58.400Z,3.20
2023-01-31T05:29:25.758Z,3.20
2023-01-31T05:31:53.385Z,3.20
2023-01-31T05:34:20.011Z,3.20
2023-01-31T05:36:46.687Z,3.20
2023-01-31T05:39:13.252Z,3.20
2023-01-31T05:41:39.788Z,3.20
2023-01-31T05:44:06.401Z,3.20
2023-01-31T05:46:32.990Z,3.20
2023-01-31T05:48:59.590Z,3.20
2023-01-31T05:51:26.197Z,3.20
2023-01-31T05:53:52.807Z,3.30
2023-01-31T05:56:19.324Z,3.30
2023-01-31T05:58:50.343Z,3.30
2023-01-31T06:01:22.117Z,3.30
2023-01-31T06:03:49.604Z,3.30
2023-01-31T06:06:16.437Z,3.30
2023-01-31T06:08:43.404Z,3.40
2023-01-31T06:11:13.253Z,3.40
2023-01-31T06:13:40.534Z,3.40
2023-01-31T06:16:07.315Z,3.50
2023-01-31T06:18:33.939Z,3.50
2023-01-31T06:21:00.759Z,3.50
2023-01-31T06:23:27.528Z,3.60
2023-01-31T06:25:55.251Z,3.50
2023-01-31T06:28:22.120Z,3.50
2023-01-31T06:30:49.073Z,3.50
2023-01-31T06:33:15.644Z,3.50
2023-01-31T06:35:42.238Z,3.50
2023-01-31T06:38:09.051Z,3.50
2023-01-31T06:40:38.363Z,3.50
2023-01-31T06:43:04.894Z,3.60
2023-01-31T06:45:31.921Z,3.60
2023-01-31T06:47:58.508Z,3.60
2023-01-31T06:50:25.070Z,3.60
2023-01-31T06:52:51.570Z,3.60
2023-01-31T06:55:18.477Z,3.60
2023-01-31T06:57:45.909Z,3.60
2023-01-31T07:00:12.697Z,3.70
2023-01-31T07:02:39.222Z,3.70
2023-01-31T07:05:06.060Z,3.70
2023-01-31T07:07:32.768Z,3.80
2023-01-31T07:09:59.448Z,3.70
2023-01-31T07:12:26.486Z,3.80
2023-01-31T07:14:53.090Z,3.80
2023-01-31T07:17:21.102Z,3.80
2023-01-31T07:19:47.665Z,3.70
2023-01-31T07:22:14.212Z,3.80
2023-01-31T07:24:41.354Z,3.80
2023-01-31T07:27:08.128Z,3.80
2023-01-31T07:29:36.312Z,3.80
2023-01-31T07:32:04.083Z,3.90
2023-01-31T07:34:31.189Z,3.80
2023-01-31T07:36:57.764Z,3.90
2023-01-31T07:39:24.281Z,4.00
2023-01-31T07:41:50.838Z,4.10
2023-01-31T07:44:17.358Z,4.10
2023-01-31T07:46:43.938Z,4.10
2023-01-31T07:49:10.555Z,4.10
2023-01-31T07:51:38.778Z,4.20
2023-01-31T07:54:06.054Z,4.20
2023-01-31T07:56:33.220Z,4.20
2023-01-31T07:58:59.987Z,4.40
2023-01-31T08:01:47.179Z,4.50
2023-01-31T08:04:21.490Z,4.70
2023-01-31T08:06:49.844Z,5.00
2023-01-31T08:09:16.378Z,5.30
2023-01-31T08:11:42.928Z,5.60
2023-01-31T08:14:09.960Z,5.60
2023-01-31T08:16:36.893Z,5.70
2023-01-31T08:19:04.200Z,5.70
2023-01-31T08:21:30.813Z,5.60
2023-01-31T08:23:57.439Z,5.50
2023-01-31T08:26:24.006Z,5.50
2023-01-31T08:28:51.627Z,5.40
2023-01-31T08:31:22.538Z,5.40
2023-01-31T08:33:51.411Z,5.50
2023-01-31T08:36:19.688Z,5.60
2023-01-31T08:38:46.609Z,5.90
2023-01-31T08:41:13.699Z,6.10
2023-01-31T08:43:54.234Z,6.70
2023-01-31T08:46:22.731Z,7.60
2023-01-31T08:48:49.239Z,8.80
2023-01-31T08:51:15.899Z,9.80
2023-01-31T08:53:46.195Z,10.00
2023-01-31T08:56:13.717Z,9.40
2023-01-31T08:58:44.338Z,8.90
2023-01-31T09:01:12.144Z,8.20
2023-01-31T09:03:39.023Z,7.70
2023-01-31T09:06:07.232Z,7.40
2023-01-31T09:08:34.126Z,7.00
2023-01-31T09:11:00.899Z,6.80
2023-01-31T09:13:27.808Z,6.70
2023-01-31T09:15:58.185Z,6.60
2023-01-31T09:18:24.758Z,6.50
2023-01-31T09:20:51.293Z,6.40
2023-01-31T09:23:20.030Z,6.50
2023-01-31T09:25:53.827Z,6.60
2023-01-31T09:28:20.766Z,6.40
2023-01-31T09:30:47.892Z,6.30
2023-01-31T09:33:14.441Z,6.40
2023-01-31T09:35:40.952Z,6.30
2023-01-31T09:38:07.607Z,6.20
2023-01-31T09:40:35.662Z,6.10
2023-01-31T09:43:02.971Z,6.30
2023-01-31T09:45:32.056Z,6.10
2023-01-31T09:47:59.743Z,6.00
2023-01-31T09:50:37.475Z,6.00
2023-01-31T09:53:04.312Z,6.10
2023-01-31T09:55:44.454Z,6.10
2023-01-31T09:58:29.766Z,6.20
2023-01-31T10:01:11.322Z,6.30
2023-01-31T10:03:44.135Z,6.30
2023-01-31T10:06:12.089Z,6.30
2023-01-31T10:08:46.101Z,6.40
2023-01-31T10:11:22.624Z,6.40
2023-01-31T10:13:51.966Z,6.50
2023-01-31T10:16:21.517Z,6.50
2023-01-31T10:18:50.247Z,6.50
2023-01-31T10:21:18.185Z,6.60
2023-01-31T10:23:48.348Z,6.80
2023-01-31T10:26:27.193Z,6.80
2023-01-31T10:29:13.764Z,6.80
2023-01-31T10:31:44.259Z,6.80
2023-01-31T10:34:14.813Z,6.80
2023-01-31T10:36:47.805Z,7.10
2023-01-31T10:39:29.402Z,7.50
2023-01-31T10:42:03.630Z,7.70
2023-01-31T10:44:44.321Z,7.90
2023-01-31T10:47:12.703Z,8.10
2023-01-31T10:49:39.515Z,8.10
2023-01-31T10:52:13.188Z,7.90
2023-01-31T10:55:05.996Z,8.00
2023-01-31T10:57:32.924Z,7.90
2023-01-31T10:59:59.579Z,7.90
2023-01-31T11:02:27.499Z,7.80
2023-01-31T11:04:55.692Z,7.80
2023-01-31T11:07:22.471Z,7.80
2023-01-31T11:09:51.747Z,7.80
2023-01-31T11:12:18.909Z,7.40
2023-01-31T11:14:45.498Z,7.20
2023-01-31T11:17:17.172Z,7.10
2023-01-31T11:19:48.405Z,7.10
2023-01-31T11:22:29.230Z,7.00
2023-01-31T11:24:56.667Z,6.90
2023-01-31T11:27:27.876Z,7.10
2023-01-31T11:29:59.939Z,7.10
2023-01-31T11:32:32.425Z,7.30
2023-01-31T11:35:04.227Z,7.80
2023-01-31T11:37:34.039Z,9.10
2023-01-31T11:40:02.172Z,10.00
2023-01-31T11:42:28.828Z,10.20
2023-01-31T11:44:56.388Z,10.30
2023-01-31T11:47:38.395Z,10.30
2023-01-31T11:50:05.455Z,10.20
2023-01-31T11:52:33.502Z,10.10
2023-01-31T11:55:01.894Z,9.90
2023-01-31T11:57:35.799Z,9.70
2023-01-31T12:00:04.829Z,9.40
2023-01-31T12:02:38.963Z,9.20
2023-01-31T12:05:10.138Z,8.90
2023-01-31T12:07:44.657Z,8.60
2023-01-31T12:10:28.915Z,8.40
2023-01-31T12:13:08.857Z,8.10
2023-01-31T12:15:50.150Z,7.80
2023-01-31T12:18:21.730Z,7.70
2023-01-31T12:20:58.869Z,7.50
2023-01-31T12:23:37.562Z,7.30
2023-01-31T12:26:09.350Z,7.30
2023-01-31T12:28:42.195Z,7.20
2023-01-31T12:31:23.964Z,7.10
2023-01-31T12:33:55.706Z,7.00
2023-01-31T12:36:30.120Z,6.90
2023-01-31T12:39:02.502Z,6.90
2023-01-31T12:41:47.989Z,6.70
2023-01-31T12:44:20.652Z,6.70
2023-01-31T12:47:11.488Z,6.70
2023-01-31T12:49:39.292Z,6.60
2023-01-31T12:52:09.953Z,6.50
2023-01-31T12:54:59.866Z,6.40
2023-01-31T12:57:35.868Z,6.30
2023-01-31T13:00:29.250Z,6.20
2023-01-31T13:03:14.466Z,6.10
2023-01-31T13:06:07.311Z,6.00
2023-01-31T13:08:35.276Z,6.00
2023-01-31T13:11:03.836Z,6.00
2023-01-31T13:13:40.318Z,6.00
2023-01-31T13:16:29.198Z,6.00
2023-01-31T13:18:58.074Z,6.00
2023-01-31T13:21:27.135Z,6.00
2023-01-31T13:23:55.633Z,5.90
2023-01-31T13:26:26.531Z,5.80
2023-01-31T13:28:57.986Z,5.70
2023-01-31T13:31:26.306Z,5.60
2023-01-31T13:34:01.412Z,5.60
2023-01-31T13:36:31.015Z,5.60
2023-01-31T13:38:57.934Z,5.50
2023-01-31T13:41:28.929Z,5.50
2023-01-31T13:43:57.432Z,5.50
2023-01-31T13:46:29.912Z,5.50
2023-01-31T13:49:01.107Z,5.50
2023-01-31T13:51:27.726Z,5.40
2023-01-31T13:54:01.618Z,5.40
2023-01-31T13:56:29.862Z,5.40
2023-01-31T13:58:56.844Z,5.50
2023-01-31T14:01:27.621Z,5.40
2023-01-31T14:04:14.030Z,5.40
2023-01-31T14:06:49.739Z,5.40
2023-01-31T14:09:36.313Z,5.40
2023-01-31T14:12:15.725Z,5.40
2023-01-31T14:14:51.176Z,5.40
2023-01-31T14:17:23.628Z,5.40
2023-01-31T14:19:50.104Z,5.50
2023-01-31T14:22:24.619Z,5.40
2023-01-31T14:24:53.395Z,5.40
2023-01-31T14:27:21.650Z,5.40
2023-01-31T14:29:49.589Z,5.40
2023-01-31T14:32:22.122Z,5.40
2023-01-31T14:34:49.617Z,5.40
2023-01-31T14:37:21.980Z,5.40
2023-01-31T14:40:09.364Z,5.40
2023-01-31T14:42:54.384Z,5.40
2023-01-31T14:45:21.712Z,5.50
2023-01-31T14:47:58.050Z,5.40
2023-01-31T14:50:24.586Z,5.50
2023-01-31T14:52:58.688Z,6.00
2023-01-31T14:55:33.835Z,5.40
2023-01-31T14:58:01.531Z,5.40
2023-01-31T15:00:36.480Z,5.40
2023-01-31T15:03:03.172Z,5.50
2023-01-31T15:05:32.580Z,5.40
2023-01-31T15:08:06.465Z,5.40
2023-01-31T15:10:51.749Z,5.40
2023-01-31T15:13:35.562Z,5.40
2023-01-31T15:16:07.563Z,5.30
2023-01-31T15:18:34.521Z,5.40
2023-01-31T15:21:03.101Z,5.40
2023-01-31T15:23:30.967Z,5.30
2023-01-31T15:25:58.840Z,5.40
2023-01-31T15:28:28.319Z,5.40
2023-01-31T15:30:56.672Z,5.40
2023-01-31T15:33:29.343Z,5.30
2023-01-31T15:36:01.463Z,5.30
2023-01-31T15:38:33.552Z,5.30
2023-01-31T15:41:12.271Z,5.30
2023-01-31T15:43:39.591Z,5.30
2023-01-31T15:46:24.839Z,5.40
2023-01-31T15:48:51.755Z,5.40
2023-01-31T15:51:19.619Z,5.30
2023-01-31T15:53:47.532Z,5.30
2023-01-31T15:56:21.814Z,5.30
2023-01-31T15:58:49.868Z,5.30
2023-01-31T16:01:17.673Z,5.30
2023-01-31T16:03:57.928Z,5.30
2023-01-31T16:06:26.541Z,5.30
2023-01-31T16:09:01.427Z,5.30
2023-01-31T16:11:33.447Z,5.30
2023-01-31T16:14:01.724Z,5.30
2023-01-31T16:16:29.413Z,5.30
2023-01-31T16:18:57.625Z,5.30
2023-01-31T16:21:31.863Z,5.30
2023-01-31T16:24:14.932Z,5.30
2023-01-31T16:26:48.074Z,5.30
2023-01-31T16:29:16.110Z,5.30
2023-01-31T16:31:50.833Z,5.30
2023-01-31T16:34:26.388Z,5.30
2023-01-31T16:37:01.149Z,5.30
2023-01-31T16:39:36.495Z,5.30
2023-01-31T16:42:04.684Z,5.30
2023-01-31T16:44:36.125Z,5.30
2023-01-31T16:47:04.339Z,5.30
2023-01-31T16:49:35.552Z,5.40
2023-01-31T16:52:17.704Z,5.30
2023-01-31T16:54:48.654Z,5.30
2023-01-31T16:57:38.177Z,5.20
2023-01-31T17:00:23.978Z,5.20
2023-01-31T17:02:51.598Z,4.90
2023-01-31T17:05:23.533Z,5.20
2023-01-31T17:07:50.925Z,5.20
2023-01-31T17:10:26.562Z,5.20
2023-01-31T17:13:05.114Z,5.20
2023-01-31T17:15:31.906Z,5.20
2023-01-31T17:17:58.465Z,5.10
2023-01-31T17:20:24.969Z,5.20
2023-01-31T17:23:02.467Z,5.20
2023-01-31T17:25:32.206Z,5.10
2023-01-31T17:27:58.836Z,5.10
2023-01-31T17:30:27.865Z,5.10
2023-01-31T17:32:57.150Z,5.10
2023-01-31T17:35:25.657Z,5.20
2023-01-31T17:37:52.312Z,5.20
2023-01-31T17:40:18.982Z,5.20
2023-01-31T17:42:45.591Z,5.20
2023-01-31T17:45:13.435Z,5.20
2023-01-31T17:47:40.237Z,5.20
2023-01-31T17:50:07.248Z,5.20
2023-01-31T17:52:33.766Z,5.20
2023-01-31T17:55:00.341Z,5.20
2023-01-31T17:57:26.926Z,5.20
2023-01-31T17:59:53.686Z,5.20
2023-01-31T18:02:20.321Z,5.30
2023-01-31T18:04:46.833Z,5.30
2023-01-31T18:07:15.211Z,5.20
2023-01-31T18:09:41.717Z,5.20
2023-01-31T18:12:08.284Z,5.20
2023-01-31T18:14:35.033Z,5.20
2023-01-31T18:17:01.552Z,5.20
2023-01-31T18:19:28.454Z,5.20
2023-01-31T18:21:55.819Z,5.20
2023-01-31T18:24:22.920Z,5.20
2023-01-31T18:26:49.526Z,5.30
2023-01-31T18:29:19.713Z,5.20
2023-01-31T18:31:47.137Z,5.20
2023-01-31T18:34:13.707Z,5.20
2023-01-31T18:36:40.407Z,5.20
2023-01-31T18:39:07.384Z,5.20
2023-01-31T18:41:34.020Z,5.20
2023-01-31T18:44:00.748Z,5.20
2023-01-31T18:46:28.002Z,5.20
2023-01-31T18:48:54.670Z,5.20
2023-01-31T18:51:21.244Z,5.30
2023-01-31T18:53:48.998Z,5.30
2023-01-31T18:56:19.951Z,5.30
2023-01-31T18:58:49.074Z,5.20
2023-01-31T19:01:20.036Z,5.30
2023-01-31T19:03:47.553Z,5.30
2023-01-31T19:06:15.323Z,5.20
2023-01-31T19:08:42.065Z,5.20
2023-01-31T19:11:10.400Z,5.30
2023-01-31T19:13:37.177Z,5.30
2023-01-31T19:16:05.707Z,5.20
2023-01-31T19:18:32.479Z,5.30
2023-01-31T19:20:59.060Z,5.40
2023-01-31T19:23:26.092Z,5.20
2023-01-31T19:25:52.721Z,5.20
2023-01-31T19:28:22.803Z,5.20
2023-01-31T19:30:50.823Z,5.20
2023-01-31T19:33:18.008Z,5.30
2023-01-31T19:35:44.747Z,5.30
2023-01-31T19:38:11.320Z,5.30
2023-01-31T19:40:37.989Z,5.30
2023-01-31T19:43:04.639Z,5.30
2023-01-31T19:45:31.326Z,5.20
2023-01-31T19:47:59.294Z,5.20
2023-01-31T19:50:25.835Z,5.20
2023-01-31T19:52:52.393Z,5.20
2023-01-31T19:55:19.351Z,5.20
2023-01-31T19:57:46.050Z,5.20
2023-01-31T20:00:12.895Z,5.20
2023-01-31T20:02:42.016Z,5.20
2023-01-31T20:05:09.573Z,5.20
2023-01-31T20:07:37.652Z,5.20
2023-01-31T20:10:04.709Z,5.20
2023-01-31T20:12:31.218Z,5.20
2023-01-31T20:14:57.922Z,5.20
2023-01-31T20:17:25.077Z,5.30
2023-01-31T20:19:51.654Z,5.20
2023-01-31T20:22:21.798Z,5.20
2023-01-31T20:24:48.954Z,5.20
2023-01-31T20:27:15.616Z,5.20
2023-01-31T20:29:42.132Z,5.20
2023-01-31T20:32:10.213Z,5.30
2023-01-31T20:34:36.932Z,5.30
2023-01-31T20:37:03.542Z,5.40
2023-01-31T20:39:30.054Z,5.30
2023-01-31T20:41:57.116Z,5.30
2023-01-31T20:44:23.653Z,5.30
2023-01-31T20:46:50.533Z,5.30
2023-01-31T20:49:17.108Z,5.30
2023-01-31T20:51:43.652Z,5.30
2023-01-31T20:54:10.204Z,5.30
2023-01-31T20:56:36.762Z,5.30
2023-01-31T20:59:03.331Z,5.30
2023-01-31T21:01:29.900Z,5.30
2023-01-31T21:03:56.611Z,5.40
2023-01-31T21:06:23.180Z,5.40
2023-01-31T21:08:49.779Z,5.40
2023-01-31T21:11:16.371Z,5.50
2023-01-31T21:13:43.922Z,5.40
2023-01-31T21:16:11.474Z,5.50
2023-01-31T21:18:39.187Z,5.40
2023-01-31T21:21:07.363Z,5.40
2023-01-31T21:23:37.717Z,5.40
2023-01-31T21:26:05.672Z,5.40
2023-01-31T21:28:32.639Z,5.40
2023-01-31T21:31:03.720Z,5.40
2023-01-31T21:33:30.421Z,5.40
2023-01-31T21:35:58.197Z,5.40
2023-01-31T21:38:25.226Z,5.40
2023-01-31T21:41:14.807Z,5.40
2023-01-31T21:43:41.371Z,5.30
2023-01-31T21:46:11.535Z,5.30
2023-01-31T21:48:38.554Z,5.30
2023-01-31T21:51:09.631Z,5.30
2023-01-31T21:53:36.710Z,5.30
2023-01-31T21:56:06.336Z,5.30
2023-01-31T21:58:33.793Z,5.30
2023-01-31T22:01:02.161Z,5.30
2023-01-31T22:03:28.717Z,5.30
2023-01-31T22:06:00.264Z,5.30
2023-01-31T22:08:26.846Z,5.20
2023-01-31T22:11:19.890Z,5.30
2023-01-31T22:13:47.287Z,5.30
2023-01-31T22:16:14.754Z,5.20
2023-01-31T22:18:42.575Z,5.50
2023-01-31T22:21:13.371Z,5.20
2023-01-31T22:23:40.701Z,5.20
2023-01-31T22:26:08.743Z,5.20
2023-01-31T22:28:35.766Z,5.20
2023-01-31T22:31:03.215Z,5.20
2023-01-31T22:33:30.765Z,5.20
2023-01-31T22:35:57.392Z,5.20
2023-01-31T22:38:24.223Z,5.20
2023-01-31T22:40:50.862Z,5.20
2023-01-31T22:43:18.794Z,5.30
2023-01-31T22:45:46.285Z,5.30
2023-01-31T22:48:13.690Z,5.30
2023-01-31T22:50:40.749Z,5.30
2023-01-31T22:53:07.796Z,5.30
2023-01-31T22:55:38.698Z,5.30
2023-01-31T22:58:05.670Z,5.30
2023-01-31T23:00:32.858Z,5.30
2023-01-31T23:02:59.489Z,5.30
2023-01-31T23:05:26.074Z,5.30
2023-01-31T23:07:52.726Z,5.30
2023-01-31T23:10:20.067Z,5.30
2023-01-31T23:12:46.963Z,5.40
2023-01-31T23:15:13.866Z,5.30
2023-01-31T23:17:40.942Z,5.30
2023-01-31T23:20:12.031Z,5.30
2023-01-31T23:22:38.760Z,5.30
2023-01-31T23:25:06.531Z,5.30
2023-01-31T23:27:33.105Z,5.30
2023-01-31T23:29:59.777Z,5.20
2023-01-31T23:32:26.337Z,5.30
2023-01-31T23:34:52.937Z,5.30
2023-01-31T23:37:20.657Z,5.30
2023-01-31T23:39:47.381Z,5.30
2023-01-31T23:42:13.876Z,5.40
2023-01-31T23:44:40.489Z,5.30
2023-01-31T23:47:07.109Z,5.30
2023-01-31T23:49:33.661Z,5.30
2023-01-31T23:52:00.206Z,5.30
2023-01-31T23:54:26.852Z,5.30
2023-01-31T23:56:53.395Z,5.30
2023-01-31T23:59:20.484Z,5.30
